createdAt,value
2023-02-14T00:02:20.112Z,10.50
2023-02-14T00:04:49.700Z,11.10
2023-02-14T00:07:19.324Z,10.93
2023-02-14T00:09:48.729Z,10.32
2023-02-14T00:12:19.708Z,9.75
2023-02-14T00:15:06.625Z,8.98
2023-02-14T00:17:36.112Z,9.90
2023-02-14T00:20:07.128Z,9.30
2023-02-14T00:22:36.637Z,10.07
2023-02-14T00:25:06.807Z,9.05
2023-02-14T00:27:37.851Z,10.77
2023-02-14T00:30:09.425Z,10.57
2023-02-14T00:32:40.984Z,9.07
2023-02-14T00:35:11.771Z,8.38
2023-02-14T00:37:41.334Z,9.30
2023-02-14T00:40:11.924Z,8.75
2023-02-14T00:42:42.886Z,9.90
2023-02-14T00:45:12.692Z,8.57
2023-02-14T00:50:37.367Z,9.80
2023-02-14T00:53:06.976Z,10.02
2023-02-14T00:55:36.449Z,8.27
2023-02-14T00:58:06.080Z,8.38
2023-02-14T01:00:35.657Z,8.57
2023-02-14T01:03:05.408Z,6.90
2023-02-14T01:05:36.360Z,7.25
2023-02-14T01:08:06.194Z,7.95
2023-02-14T01:10:37.392Z,7.57
2023-02-14T01:13:07.622Z,7.50
2023-02-14T01:15:42.594Z,8.40
2023-02-14T01:18:12.369Z,5.57
2023-02-14T01:20:43.626Z,7.13
2023-02-14T01:23:14.428Z,8.80
2023-02-14T01:25:44.147Z,5.95
2023-02-14T01:28:13.694Z,7.13
2023-02-14T01:30:43.356Z,7.35
2023-02-14T01:33:13.086Z,7.35
2023-02-14T01:35:46.207Z,6.88
2023-02-14T01:38:15.790Z,6.15
2023-02-14T01:40:46.447Z,5.10
2023-02-14T01:43:18.213Z,5.03
2023-02-14T01:45:47.747Z,6.20
2023-02-14T01:48:18.631Z,7.00
2023-02-14T01:50:52.863Z,5.85
2023-02-14T01:53:28.070Z,6.10
2023-02-14T01:56:06.577Z,5.90
2023-02-14T01:58:39.197Z,5.22
2023-02-14T02:01:09.083Z,4.95
2023-02-14T02:03:43.261Z,5.60
2023-02-14T02:06:18.757Z,4.65
2023-02-14T02:08:59.568Z,4.22
2023-02-14T02:11:29.442Z,3.53
2023-02-14T02:13:59.322Z,3.65
2023-02-14T02:16:58.739Z,3.08
2023-02-14T02:20:22.528Z,3.47
2023-02-14T02:23:51.648Z,3.10
2023-02-14T02:27:00.494Z,3.22
2023-02-14T02:30:22.172Z,3.08
2023-02-14T02:33:56.991Z,2.90
2023-02-14T02:37:03.141Z,3.63
2023-02-14T02:39:51.096Z,3.90
2023-02-14T02:42:32.721Z,2.33
2023-02-14T02:45:15.697Z,3.22
2023-02-14T02:47:54.329Z,3.40
2023-02-14T02:50:48.698Z,2.38
2023-02-14T02:53:27.664Z,3.70
2023-02-14T02:56:22.341Z,3.42
2023-02-14T02:58:56.297Z,3.08
2023-02-14T03:01:33.121Z,3.22
2023-02-14T03:04:24.656Z,3.42
2023-02-14T03:06:55.191Z,4.18
2023-02-14T03:09:56.966Z,4.15
2023-02-14T03:13:09.570Z,3.38
2023-02-14T03:16:10.010Z,4.65
2023-02-14T03:19:22.573Z,4.45
2023-02-14T03:22:00.582Z,4.10
2023-02-14T03:24:45.275Z,3.75
2023-02-14T03:27:24.156Z,2.78
2023-02-14T03:30:05.404Z,4.13
2023-02-14T03:32:42.955Z,4.88
2023-02-14T03:35:24.969Z,5.80
2023-02-14T03:38:02.377Z,4.93
2023-02-14T03:40:38.201Z,5.18
2023-02-14T03:43:13.957Z,7.82
2023-02-14T03:45:51.841Z,7.82
2023-02-14T03:51:38.660Z,6.30
2023-02-14T03:54:12.981Z,5.95
2023-02-14T03:56:50.139Z,5.32
2023-02-14T03:59:23.620Z,5.75
2023-02-14T04:01:58.471Z,5.70
2023-02-14T04:04:32.720Z,6.45
2023-02-14T04:07:12.514Z,6.03
2023-02-14T04:09:42.196Z,7.00
2023-02-14T04:12:12.372Z,6.60
2023-02-14T04:14:42.720Z,5.75
2023-02-14T04:17:29.911Z,4.65
2023-02-14T04:19:59.587Z,5.35
2023-02-14T04:22:30.642Z,5.95
2023-02-14T04:25:00.246Z,6.28
2023-02-14T04:27:29.731Z,6.55
2023-02-14T04:29:59.299Z,5.75
2023-02-14T04:32:29.011Z,6.30
2023-02-14T04:34:58.577Z,5.45
2023-02-14T04:37:29.650Z,4.90
2023-02-14T04:39:59.229Z,4.80
2023-02-14T04:42:28.932Z,5.63
2023-02-14T04:44:59.078Z,6.10
2023-02-14T04:47:28.731Z,6.22
2023-02-14T04:49:58.241Z,7.20
2023-02-14T04:52:29.363Z,6.55
2023-02-14T04:54:58.772Z,7.38
2023-02-14T04:57:28.453Z,6.45
2023-02-14T04:59:59.280Z,5.85
2023-02-14T05:02:28.793Z,5.45
2023-02-14T05:04:58.389Z,6.00
2023-02-14T05:07:29.329Z,5.82
2023-02-14T05:09:58.692Z,5.50
2023-02-14T05:12:28.365Z,5.97
2023-02-14T05:14:58.273Z,7.13
2023-02-14T05:17:27.934Z,6.25
2023-02-14T05:19:57.288Z,6.53
2023-02-14T05:22:26.949Z,10.90
2023-02-14T05:24:57.830Z,6.32
2023-02-14T05:27:27.405Z,7.65
2023-02-14T05:29:56.829Z,6.20
2023-02-14T05:32:26.428Z,6.10
2023-02-14T05:34:55.850Z,6.45
2023-02-14T05:37:25.306Z,6.95
2023-02-14T05:39:54.824Z,6.45
2023-02-14T05:42:25.726Z,6.45
2023-02-14T05:44:55.496Z,7.15
2023-02-14T05:47:24.952Z,6.95
2023-02-14T05:49:54.627Z,8.32
2023-02-14T05:52:24.207Z,6.13
2023-02-14T05:54:53.850Z,6.68
2023-02-14T05:57:24.995Z,7.80
2023-02-14T05:59:54.606Z,6.30
2023-02-14T06:02:24.224Z,5.00
2023-02-14T06:04:55.325Z,6.90
2023-02-14T06:07:26.473Z,6.60
2023-02-14T06:09:55.905Z,6.90
2023-02-14T06:12:27.053Z,8.65
2023-02-14T06:14:56.702Z,9.43
2023-02-14T06:17:26.319Z,10.38
2023-02-14T06:19:55.972Z,7.68
2023-02-14T06:22:25.457Z,7.90
2023-02-14T06:24:55.116Z,9.38
2023-02-14T06:27:26.111Z,7.70
2023-02-14T06:29:55.827Z,10.18
2023-02-14T06:32:25.618Z,8.38
2023-02-14T06:34:55.252Z,11.25
2023-02-14T06:37:24.998Z,9.52
2023-02-14T06:39:54.478Z,10.77
2023-02-14T06:42:25.613Z,8.45
2023-02-14T06:44:55.188Z,7.90
2023-02-14T06:47:24.862Z,8.25
2023-02-14T06:51:37.725Z,6.53
2023-02-14T06:54:07.490Z,7.38
2023-02-14T06:56:37.035Z,7.50
2023-02-14T06:59:06.728Z,6.90
2023-02-14T07:01:36.323Z,10.00
2023-02-14T07:04:05.953Z,11.43
2023-02-14T07:06:37.034Z,15.27
2023-02-14T07:09:06.733Z,21.58
2023-02-14T07:11:36.219Z,17.25
2023-02-14T07:14:05.815Z,19.58
2023-02-14T07:16:35.336Z,25.80
2023-02-14T07:19:04.893Z,37.00
2023-02-14T07:21:34.551Z,25.73
2023-02-14T07:24:05.712Z,19.38
2023-02-14T07:26:35.736Z,13.57
2023-02-14T07:29:05.266Z,12.60
2023-02-14T07:31:35.191Z,8.95
2023-02-14T07:34:04.907Z,6.00
2023-02-14T07:36:34.412Z,6.32
2023-02-14T07:39:05.477Z,6.05
2023-02-14T07:41:34.976Z,5.25
2023-02-14T07:44:04.455Z,5.50
2023-02-14T07:46:34.030Z,4.60
2023-02-14T07:49:03.501Z,5.13
2023-02-14T07:51:33.332Z,5.72
2023-02-14T07:54:04.478Z,4.88
2023-02-14T07:56:34.037Z,5.80
2023-02-14T07:59:03.518Z,5.40
2023-02-14T08:01:32.978Z,5.85
2023-02-14T08:04:02.519Z,5.47
2023-02-14T08:06:32.012Z,4.93
2023-02-14T08:09:01.915Z,5.70
2023-02-14T08:11:50.451Z,5.00
2023-02-14T08:14:20.125Z,6.03
2023-02-14T08:16:49.657Z,6.88
2023-02-14T08:19:19.285Z,7.00
2023-02-14T08:21:48.764Z,6.75
2023-02-14T08:24:18.347Z,6.88
2023-02-14T08:26:49.387Z,7.00
2023-02-14T08:29:18.974Z,7.78
2023-02-14T08:31:49.171Z,8.00
2023-02-14T08:34:20.122Z,8.30
2023-02-14T08:36:49.786Z,7.78
2023-02-14T08:39:19.310Z,7.43
2023-02-14T08:41:50.187Z,7.88
2023-02-14T08:44:20.413Z,8.60
2023-02-14T08:46:49.905Z,8.32
2023-02-14T08:49:19.310Z,8.27
2023-02-14T08:51:49.209Z,7.65
2023-02-14T08:54:18.782Z,8.00
2023-02-14T08:56:49.805Z,8.15
2023-02-14T08:59:19.391Z,7.85
2023-02-14T09:01:48.902Z,7.88
2023-02-14T09:04:18.652Z,8.93
2023-02-14T09:06:48.567Z,10.35
2023-02-14T09:09:19.752Z,10.10
2023-02-14T09:11:50.895Z,9.90
2023-02-14T09:14:21.244Z,9.63
2023-02-14T09:16:50.745Z,10.10
2023-02-14T09:19:20.637Z,10.13
2023-02-14T09:21:50.171Z,8.55
2023-02-14T09:24:19.733Z,9.88
2023-02-14T09:26:50.685Z,12.73
2023-02-14T09:29:20.348Z,9.38
2023-02-14T09:31:49.997Z,8.02
2023-02-14T09:34:37.042Z,10.27
2023-02-14T09:37:06.583Z,8.07
2023-02-14T09:39:36.257Z,9.73
2023-02-14T09:42:31.306Z,9.45
2023-02-14T09:45:04.441Z,7.63
2023-02-14T09:47:42.070Z,7.93
2023-02-14T09:51:46.666Z,7.38
2023-02-14T09:54:22.220Z,8.43
2023-02-14T09:56:59.366Z,8.07
2023-02-14T09:59:37.702Z,8.52
2023-02-14T10:02:35.844Z,7.78
2023-02-14T10:05:14.823Z,8.48
2023-02-14T10:07:59.587Z,5.63
2023-02-14T10:10:35.250Z,5.07
2023-02-14T10:13:16.091Z,5.15
2023-02-14T10:15:49.734Z,5.70
2023-02-14T10:18:26.834Z,5.88
2023-02-14T10:21:00.853Z,5.47
2023-02-14T10:23:38.045Z,5.07
2023-02-14T10:26:12.645Z,5.90
2023-02-14T10:28:49.419Z,5.28
2023-02-14T10:31:25.142Z,5.35
2023-02-14T10:33:59.647Z,6.40
2023-02-14T10:36:48.668Z,6.50
2023-02-14T10:39:46.031Z,6.18
2023-02-14T10:42:27.614Z,7.95
2023-02-14T10:45:12.735Z,9.02
2023-02-14T10:47:54.140Z,7.80
2023-02-14T10:50:31.460Z,8.05
2023-02-14T10:53:14.655Z,8.00
2023-02-14T10:55:55.167Z,8.10
2023-02-14T10:58:29.511Z,7.43
2023-02-14T11:01:05.539Z,7.35
2023-02-14T11:03:37.475Z,4.78
2023-02-14T11:06:07.431Z,4.77
2023-02-14T11:08:39.632Z,4.95
2023-02-14T11:11:21.622Z,4.93
2023-02-14T11:13:51.473Z,5.15
2023-02-14T11:16:34.919Z,6.78
2023-02-14T11:19:22.703Z,5.60
2023-02-14T11:21:54.809Z,4.80
2023-02-14T11:24:31.476Z,5.72
2023-02-14T11:27:05.848Z,5.30
2023-02-14T11:29:45.088Z,4.93
2023-02-14T11:32:23.151Z,5.22
2023-02-14T11:35:00.635Z,4.53
2023-02-14T11:37:34.155Z,5.35
2023-02-14T11:40:06.591Z,4.80
2023-02-14T11:42:51.649Z,5.38
2023-02-14T11:45:34.428Z,5.20
2023-02-14T11:48:22.325Z,5.65
2023-02-14T11:51:09.304Z,4.32
2023-02-14T11:53:47.636Z,5.03
2023-02-14T11:56:20.298Z,4.70
2023-02-14T11:58:56.243Z,4.80
2023-02-14T12:01:29.789Z,4.55
2023-02-14T12:04:03.240Z,4.90
2023-02-14T12:06:36.654Z,4.75
2023-02-14T12:09:27.496Z,4.65
2023-02-14T12:11:58.273Z,3.80
2023-02-14T12:14:32.655Z,4.40
2023-02-14T12:17:10.153Z,4.53
2023-02-14T12:19:48.495Z,4.75
2023-02-14T12:22:22.291Z,3.78
2023-02-14T12:25:02.353Z,5.35
2023-02-14T12:27:40.181Z,5.00
2023-02-14T12:30:18.908Z,4.15
2023-02-14T12:32:52.850Z,4.75
2023-02-14T12:35:40.587Z,4.25
2023-02-14T12:38:18.863Z,4.00
2023-02-14T12:41:01.575Z,4.07
2023-02-14T12:43:50.898Z,4.15
2023-02-14T12:46:48.369Z,4.00
2023-02-14T12:51:47.468Z,3.70
2023-02-14T12:54:45.740Z,4.13
2023-02-14T12:57:33.233Z,4.18
2023-02-14T13:00:18.590Z,3.72
2023-02-14T13:03:26.470Z,4.40
2023-02-14T13:06:05.668Z,4.07
2023-02-14T13:09:01.558Z,4.68
2023-02-14T13:11:45.333Z,4.13
2023-02-14T13:14:38.379Z,5.20
2023-02-14T13:17:20.934Z,4.38
2023-02-14T13:20:01.850Z,5.70
2023-02-14T13:22:34.291Z,6.03
2023-02-14T13:25:17.998Z,5.70
2023-02-14T13:27:47.748Z,5.57
2023-02-14T13:30:25.578Z,5.47
2023-02-14T13:33:02.214Z,6.35
2023-02-14T13:35:33.988Z,5.57
2023-02-14T13:38:09.812Z,6.30
2023-02-14T13:40:43.066Z,5.40
2023-02-14T13:43:12.677Z,6.10
2023-02-14T13:46:07.040Z,6.03
2023-02-14T13:48:38.958Z,6.35
2023-02-14T13:51:11.599Z,5.75
2023-02-14T13:53:44.100Z,5.88
2023-02-14T13:56:37.945Z,6.60
2023-02-14T13:59:11.989Z,7.85
2023-02-14T14:01:48.418Z,7.20
2023-02-14T14:04:39.769Z,7.93
2023-02-14T14:07:24.572Z,7.10
2023-02-14T14:10:12.393Z,7.35
2023-02-14T14:12:47.593Z,7.97
2023-02-14T14:15:22.033Z,7.68
2023-02-14T14:18:33.733Z,8.10
2023-02-14T14:21:03.526Z,6.82
2023-02-14T14:23:38.812Z,6.45
2023-02-14T14:26:40.651Z,7.93
2023-02-14T14:29:21.841Z,7.10
2023-02-14T14:31:55.880Z,6.68
2023-02-14T14:34:28.331Z,7.50
2023-02-14T14:37:07.690Z,7.97
2023-02-14T14:39:40.170Z,8.07
2023-02-14T14:42:15.093Z,8.05
2023-02-14T14:44:51.647Z,7.00
2023-02-14T14:47:26.147Z,6.22
2023-02-14T14:50:01.072Z,7.55
2023-02-14T14:52:38.049Z,7.30
2023-02-14T14:55:10.175Z,7.75
2023-02-14T14:57:41.254Z,7.57
2023-02-14T15:00:27.452Z,7.70
2023-02-14T15:03:17.556Z,7.45
2023-02-14T15:05:50.069Z,8.75
2023-02-14T15:08:32.317Z,7.53
2023-02-14T15:11:06.457Z,7.67
2023-02-14T15:13:50.382Z,7.20
2023-02-14T15:16:31.375Z,8.63
2023-02-14T15:19:09.265Z,9.60
2023-02-14T15:21:39.376Z,8.52
2023-02-14T15:24:16.295Z,8.50
2023-02-14T15:26:47.984Z,9.75
2023-02-14T15:29:25.389Z,9.27
2023-02-14T15:32:00.435Z,8.43
2023-02-14T15:34:36.240Z,9.90
2023-02-14T15:37:07.958Z,8.50
2023-02-14T15:39:43.418Z,8.65
2023-02-14T15:42:26.119Z,7.45
2023-02-14T15:45:17.707Z,7.07
2023-02-14T15:47:54.619Z,7.75
2023-02-14T15:51:38.146Z,7.55
2023-02-14T15:54:18.506Z,7.88
2023-02-14T15:56:51.037Z,8.02
2023-02-14T15:59:24.314Z,7.85
2023-02-14T16:01:56.428Z,7.32
2023-02-14T16:04:27.534Z,7.57
2023-02-14T16:07:28.143Z,8.00
2023-02-14T16:10:25.641Z,6.38
2023-02-14T16:13:02.769Z,6.72
2023-02-14T16:15:35.057Z,5.95
2023-02-14T16:18:08.283Z,6.78
2023-02-14T16:20:43.722Z,7.60
2023-02-14T16:23:26.778Z,8.05
2023-02-14T16:28:31.746Z,9.77
2023-02-14T16:31:06.085Z,12.25
2023-02-14T16:33:38.446Z,13.13
2023-02-14T16:36:16.027Z,12.50
2023-02-14T16:38:48.166Z,13.60
2023-02-14T16:41:20.430Z,13.93
2023-02-14T16:43:51.724Z,14.10
2023-02-14T16:46:24.413Z,13.30
2023-02-14T16:48:54.826Z,13.55
2023-02-14T16:51:26.666Z,9.80
2023-02-14T16:54:00.789Z,7.95
2023-02-14T16:56:43.805Z,6.53
2023-02-14T16:59:13.461Z,6.75
2023-02-14T17:01:42.982Z,7.50
2023-02-14T17:04:12.743Z,8.95
2023-02-14T17:06:48.447Z,9.15
2023-02-14T17:09:24.582Z,11.88
2023-02-14T17:11:57.644Z,17.08
2023-02-14T17:14:31.881Z,10.15
2023-02-14T17:17:02.290Z,9.98
2023-02-14T17:19:32.627Z,12.85
2023-02-14T17:22:04.011Z,8.52
2023-02-14T17:24:35.190Z,8.27
2023-02-14T17:27:04.728Z,11.32
2023-02-14T17:29:34.252Z,9.18
2023-02-14T17:32:03.714Z,11.05
2023-02-14T17:34:34.648Z,9.77
2023-02-14T17:37:04.352Z,7.10
2023-02-14T17:39:35.207Z,6.10
2023-02-14T17:42:04.887Z,6.60
2023-02-14T17:44:36.084Z,6.32
2023-02-14T17:47:06.037Z,6.13
2023-02-14T17:49:35.792Z,9.70
2023-02-14T17:52:05.580Z,8.00
2023-02-14T17:54:40.708Z,7.10
2023-02-14T17:57:10.597Z,6.78
2023-02-14T17:59:40.313Z,6.70
2023-02-14T18:02:09.846Z,7.15
2023-02-14T18:04:39.530Z,5.60
2023-02-14T18:07:09.351Z,6.70
2023-02-14T18:09:40.642Z,7.03
2023-02-14T18:12:14.965Z,6.22
2023-02-14T18:14:45.179Z,7.65
2023-02-14T18:17:15.313Z,6.55
2023-02-14T18:19:46.887Z,6.93
2023-02-14T18:22:16.603Z,7.78
2023-02-14T18:24:47.730Z,6.53
2023-02-14T18:27:17.512Z,7.30
2023-02-14T18:29:47.525Z,6.60
2023-02-14T18:32:17.186Z,6.05
2023-02-14T18:34:46.852Z,5.38
2023-02-14T18:37:16.779Z,5.07
2023-02-14T18:39:47.826Z,5.65
2023-02-14T18:42:17.705Z,5.88
2023-02-14T18:44:47.268Z,6.13
2023-02-14T18:47:16.832Z,6.68
2023-02-14T18:51:40.145Z,5.32
2023-02-14T18:54:10.052Z,6.38
2023-02-14T18:56:40.835Z,10.75
2023-02-14T18:59:13.678Z,10.18
2023-02-14T19:04:17.935Z,5.27
2023-02-14T19:06:49.630Z,6.75
2023-02-14T19:09:19.374Z,8.77
2023-02-14T19:11:48.996Z,9.80
2023-02-14T19:14:21.112Z,7.35
2023-02-14T19:16:53.692Z,6.43
2023-02-14T19:21:55.412Z,5.45
2023-02-14T19:24:25.940Z,5.80
2023-02-14T19:26:56.973Z,5.57
2023-02-14T19:29:28.763Z,6.60
2023-02-14T19:31:59.638Z,5.40
2023-02-14T19:34:31.453Z,7.95
2023-02-14T19:37:03.258Z,8.70
2023-02-14T19:39:33.111Z,5.93
2023-02-14T19:42:04.275Z,10.82
2023-02-14T19:44:33.733Z,7.72
2023-02-14T19:47:19.291Z,6.47
2023-02-14T19:49:54.705Z,5.63
2023-02-14T19:52:28.720Z,5.95
2023-02-14T19:54:58.511Z,5.32
2023-02-14T19:57:27.996Z,6.47
2023-02-14T19:59:57.492Z,6.25
2023-02-14T20:02:27.039Z,6.10
2023-02-14T20:05:04.503Z,3.90
2023-02-14T20:07:35.467Z,5.47
2023-02-14T20:10:05.247Z,5.20
2023-02-14T20:12:34.793Z,5.97
2023-02-14T20:15:05.695Z,10.88
2023-02-14T20:17:36.045Z,6.70
2023-02-14T20:20:08.068Z,6.50
2023-02-14T20:22:39.149Z,6.70
2023-02-14T20:25:10.305Z,7.13
2023-02-14T20:27:40.021Z,6.45
2023-02-14T20:30:11.191Z,6.47
2023-02-14T20:32:40.987Z,5.57
2023-02-14T20:35:10.927Z,4.68
2023-02-14T20:37:41.781Z,4.10
2023-02-14T20:40:13.555Z,3.55
2023-02-14T20:42:42.969Z,3.75
2023-02-14T20:45:12.612Z,3.60
2023-02-14T20:47:42.159Z,4.50
2023-02-14T20:50:13.294Z,4.53
2023-02-14T20:52:44.313Z,3.78
2023-02-14T20:55:13.866Z,6.90
2023-02-14T20:57:43.529Z,4.70
2023-02-14T21:00:14.435Z,3.20
2023-02-14T21:02:44.007Z,3.70
2023-02-14T21:05:18.664Z,3.65
2023-02-14T21:07:49.585Z,3.75
2023-02-14T21:10:19.327Z,3.45
2023-02-14T21:12:49.030Z,4.85
2023-02-14T21:15:18.650Z,4.07
2023-02-14T21:17:48.207Z,4.13
2023-02-14T21:20:19.710Z,4.80
2023-02-14T21:22:50.650Z,4.18
2023-02-14T21:25:22.952Z,3.65
2023-02-14T21:27:53.218Z,3.45
2023-02-14T21:30:22.941Z,3.90
2023-02-14T21:32:52.520Z,4.85
2023-02-14T21:35:21.925Z,3.50
2023-02-14T21:37:52.819Z,3.45
2023-02-14T21:40:23.769Z,3.05
2023-02-14T21:42:54.104Z,3.50
2023-02-14T21:45:40.637Z,3.70
2023-02-14T21:51:38.034Z,3.40
2023-02-14T21:54:08.975Z,3.95
2023-02-14T21:56:41.529Z,3.28
2023-02-14T21:59:11.362Z,3.15
2023-02-14T22:01:43.212Z,3.95
2023-02-14T22:04:16.063Z,3.20
2023-02-14T22:09:18.934Z,4.47
2023-02-14T22:11:48.834Z,4.97
2023-02-14T22:14:21.312Z,5.10
2023-02-14T22:16:50.890Z,3.63
2023-02-14T22:19:20.832Z,3.95
2023-02-14T22:21:51.951Z,2.78
2023-02-14T22:24:21.570Z,2.42
2023-02-14T22:26:50.934Z,3.92
2023-02-14T22:29:23.150Z,3.88
2023-02-14T22:31:52.661Z,3.42
2023-02-14T22:34:22.374Z,3.75
2023-02-14T22:36:55.390Z,2.85
2023-02-14T22:39:25.027Z,3.75
2023-02-14T22:41:54.496Z,2.42
2023-02-14T22:44:24.127Z,3.63
2023-02-14T22:46:53.873Z,3.97
2023-02-14T22:49:23.387Z,3.80
2023-02-14T22:51:55.875Z,3.97
2023-02-14T22:54:25.405Z,4.85
2023-02-14T22:56:54.953Z,6.97
2023-02-14T22:59:28.369Z,7.35
2023-02-14T23:01:57.826Z,7.80
2023-02-14T23:04:29.662Z,6.68
2023-02-14T23:07:00.612Z,5.47
2023-02-14T23:09:30.389Z,4.57
2023-02-14T23:11:59.903Z,5.82
2023-02-14T23:14:46.914Z,5.40
2023-02-14T23:17:31.992Z,4.38
2023-02-14T23:20:19.086Z,3.95
2023-02-14T23:22:49.911Z,3.65
2023-02-14T23:25:19.509Z,4.22
2023-02-14T23:27:49.406Z,4.50
2023-02-14T23:30:21.099Z,3.90
2023-02-14T23:32:50.673Z,3.42
2023-02-14T23:35:20.407Z,4.72
2023-02-14T23:37:51.361Z,3.88
2023-02-14T23:40:21.228Z,3.80
2023-02-14T23:42:50.752Z,3.80
2023-02-14T23:45:40.037Z,4.03
2023-02-14T23:48:09.552Z,3.90
2023-02-14T23:50:39.195Z,3.95
2023-02-14T23:53:11.357Z,3.65
2023-02-14T23:55:41.208Z,3.83
2023-02-14T23:58:10.592Z,3.17
